createdAt,value
2022-11-24T00:01:08.003Z,88.70
2022-11-24T00:03:58.843Z,88.70
2022-11-24T00:06:47.217Z,88.70
2022-11-24T00:09:37.179Z,88.70
2022-11-24T00:12:25.394Z,88.80
2022-11-24T00:15:14.129Z,88.80
2022-11-24T00:18:02.498Z,88.70
2022-11-24T00:20:53.846Z,88.80
2022-11-24T00:23:41.987Z,88.70
2022-11-24T00:26:33.962Z,88.80
2022-11-24T00:29:24.120Z,88.70
2022-11-24T00:32:12.367Z,88.80
2022-11-24T00:35:00.861Z,88.80
2022-11-24T00:37:49.299Z,88.80
2022-11-24T00:40:37.996Z,88.70
2022-11-24T00:43:27.564Z,88.80
2022-11-24T00:46:16.325Z,88.70
2022-11-24T00:49:05.057Z,88.70
2022-11-24T00:51:53.768Z,88.60
2022-11-24T00:54:42.025Z,88.70
2022-11-24T00:57:30.825Z,88.70
2022-11-24T01:00:21.189Z,88.70
2022-11-24T01:03:09.871Z,88.70
2022-11-24T01:05:58.289Z,88.80
2022-11-24T01:08:47.745Z,88.80
2022-11-24T01:11:51.353Z,88.70
2022-11-24T01:14:40.157Z,89.30
2022-11-24T01:17:29.844Z,88.70
2022-11-24T01:20:18.661Z,88.70
2022-11-24T01:23:07.709Z,88.80
2022-11-24T01:25:56.138Z,88.70
2022-11-24T01:28:47.554Z,88.70
2022-11-24T01:31:37.053Z,88.70
2022-11-24T01:34:26.839Z,88.70
2022-11-24T01:37:15.197Z,88.70
2022-11-24T01:40:03.617Z,88.70
2022-11-24T01:42:53.694Z,88.70
2022-11-24T01:45:42.692Z,88.70
2022-11-24T01:48:39.428Z,88.70
2022-11-24T01:51:33.777Z,88.70
2022-11-24T01:54:26.315Z,88.70
2022-11-24T01:57:19.577Z,88.70
2022-11-24T02:00:11.215Z,88.70
2022-11-24T02:03:02.559Z,88.70
2022-11-24T02:05:57.585Z,88.60
2022-11-24T02:08:53.377Z,88.70
2022-11-24T02:11:42.900Z,88.60
2022-11-24T02:14:32.009Z,88.60
2022-11-24T02:17:21.032Z,88.60
2022-11-24T02:20:11.254Z,88.60
2022-11-24T02:23:06.548Z,88.70
2022-11-24T02:26:05.575Z,88.60
2022-11-24T02:28:55.621Z,88.70
2022-11-24T02:31:48.215Z,88.70
2022-11-24T02:34:36.952Z,88.60
2022-11-24T02:37:25.359Z,88.70
2022-11-24T02:40:16.649Z,88.70
2022-11-24T02:43:08.864Z,89.20
2022-11-24T02:45:58.670Z,88.70
2022-11-24T02:48:47.287Z,88.70
2022-11-24T02:51:35.610Z,88.80
2022-11-24T02:54:23.709Z,88.80
2022-11-24T02:57:12.937Z,88.70
2022-11-24T03:00:00.821Z,88.80
2022-11-24T03:02:50.641Z,88.70
2022-11-24T03:05:39.032Z,88.70
2022-11-24T03:08:27.583Z,88.70
2022-11-24T03:11:16.010Z,88.70
2022-11-24T03:14:04.317Z,88.70
2022-11-24T03:16:52.353Z,88.60
2022-11-24T03:19:42.314Z,88.70
2022-11-24T03:22:30.850Z,88.70
2022-11-24T03:25:19.697Z,88.90
2022-11-24T03:28:08.036Z,88.80
2022-11-24T03:30:56.264Z,88.70
2022-11-24T03:33:44.364Z,88.70
2022-11-24T03:36:34.034Z,88.70
2022-11-24T03:39:22.402Z,88.80
2022-11-24T03:42:10.862Z,88.70
2022-11-24T03:45:04.220Z,88.80
2022-11-24T03:48:06.056Z,88.80
2022-11-24T03:50:56.345Z,88.80
2022-11-24T03:53:46.049Z,88.70
2022-11-24T03:56:34.160Z,88.80
2022-11-24T03:59:22.993Z,88.80
2022-11-24T04:02:11.262Z,88.90
2022-11-24T04:05:00.272Z,88.80
2022-11-24T04:07:48.714Z,88.80
2022-11-24T04:10:39.466Z,89.40
2022-11-24T04:13:29.023Z,88.80
2022-11-24T04:16:17.288Z,88.70
2022-11-24T04:19:05.842Z,88.70
2022-11-24T04:21:54.189Z,88.60
2022-11-24T04:24:42.915Z,88.70
2022-11-24T04:27:33.941Z,88.70
2022-11-24T04:30:23.122Z,88.70
2022-11-24T04:33:11.829Z,88.70
2022-11-24T04:35:59.722Z,88.70
2022-11-24T04:39:25.523Z,88.60
2022-11-24T04:41:56.652Z,88.70
2022-11-24T04:44:47.034Z,88.70
2022-11-24T04:47:35.945Z,88.70
2022-11-24T04:50:24.450Z,88.70
2022-11-24T04:53:13.709Z,88.70
2022-11-24T04:56:06.190Z,88.70
2022-11-24T04:58:54.381Z,88.70
2022-11-24T05:01:45.152Z,88.70
2022-11-24T05:04:33.776Z,88.70
2022-11-24T05:07:22.410Z,88.60
2022-11-24T05:10:28.574Z,88.70
2022-11-24T05:13:16.779Z,88.60
2022-11-24T05:16:05.862Z,88.60
2022-11-24T05:18:55.804Z,88.70
2022-11-24T05:21:44.523Z,88.70
2022-11-24T05:24:33.433Z,88.70
2022-11-24T05:27:22.497Z,88.70
2022-11-24T05:30:11.544Z,88.70
2022-11-24T05:33:00.480Z,88.70
2022-11-24T05:35:50.797Z,88.70
2022-11-24T05:38:39.273Z,88.70
2022-11-24T05:41:27.630Z,88.80
2022-11-24T05:44:15.939Z,88.70
2022-11-24T05:47:04.397Z,88.70
2022-11-24T05:49:53.314Z,88.70
2022-11-24T05:52:43.185Z,88.70
2022-11-24T05:55:31.775Z,88.70
2022-11-24T05:58:20.162Z,88.70
2022-11-24T06:01:09.036Z,88.70
2022-11-24T06:03:57.433Z,88.70
2022-11-24T06:06:47.504Z,88.80
2022-11-24T06:09:39.154Z,88.80
2022-11-24T06:12:27.254Z,88.70
2022-11-24T06:15:15.873Z,88.80
2022-11-24T06:18:04.165Z,88.80
2022-11-24T06:21:09.496Z,88.70
2022-11-24T06:23:58.983Z,88.70
2022-11-24T06:26:48.528Z,88.80
2022-11-24T06:29:36.853Z,88.80
2022-11-24T06:32:25.402Z,88.90
2022-11-24T06:35:14.250Z,88.90
2022-11-24T06:38:02.932Z,89.00
2022-11-24T06:40:51.085Z,89.00
2022-11-24T06:43:41.564Z,89.00
2022-11-24T06:46:29.854Z,89.00
2022-11-24T06:49:18.317Z,89.00
2022-11-24T06:52:06.711Z,89.00
2022-11-24T06:54:55.285Z,89.00
2022-11-24T06:57:43.423Z,89.10
2022-11-24T07:00:33.953Z,89.10
2022-11-24T07:03:22.240Z,89.10
2022-11-24T07:06:10.835Z,89.10
2022-11-24T07:08:59.360Z,89.00
2022-11-24T07:11:48.358Z,89.10
2022-11-24T07:14:36.932Z,89.10
2022-11-24T07:17:27.381Z,89.10
2022-11-24T07:20:15.518Z,89.10
2022-11-24T07:23:04.177Z,89.10
2022-11-24T07:25:52.545Z,89.00
2022-11-24T07:28:41.196Z,89.10
2022-11-24T07:31:29.611Z,89.10
2022-11-24T07:34:19.985Z,89.10
2022-11-24T07:37:08.612Z,89.10
2022-11-24T07:39:57.149Z,89.10
2022-11-24T07:42:45.372Z,89.10
2022-11-24T07:45:34.002Z,89.10
2022-11-24T07:48:22.079Z,89.10
2022-11-24T07:51:12.267Z,89.10
2022-11-24T07:54:00.520Z,89.10
2022-11-24T07:56:50.035Z,89.10
2022-11-24T07:59:38.230Z,89.20
2022-11-24T08:02:26.510Z,89.20
2022-11-24T08:05:15.383Z,89.20
2022-11-24T08:08:05.593Z,89.20
2022-11-24T08:10:54.191Z,89.10
2022-11-24T08:13:42.796Z,89.10
2022-11-24T08:16:32.361Z,89.10
2022-11-24T08:19:20.888Z,89.20
2022-11-24T08:22:09.327Z,89.10
2022-11-24T08:24:59.149Z,89.10
2022-11-24T08:27:47.734Z,89.10
2022-11-24T08:30:35.968Z,89.10
2022-11-24T08:33:24.454Z,89.10
2022-11-24T08:36:16.627Z,89.20
2022-11-24T08:39:05.311Z,89.20
2022-11-24T08:41:55.108Z,89.20
2022-11-24T08:44:43.725Z,89.20
2022-11-24T08:47:32.363Z,89.10
2022-11-24T08:50:20.874Z,89.10
2022-11-24T08:53:10.018Z,89.10
2022-11-24T08:56:01.181Z,89.20
2022-11-24T08:58:51.931Z,89.10
2022-11-24T09:01:40.226Z,89.10
2022-11-24T09:04:28.500Z,89.10
2022-11-24T09:07:16.986Z,89.10
2022-11-24T09:10:06.480Z,89.10
2022-11-24T09:12:54.372Z,89.10
2022-11-24T09:15:44.729Z,89.00
2022-11-24T09:18:34.635Z,89.10
2022-11-24T09:21:23.409Z,89.00
2022-11-24T09:24:12.149Z,89.10
2022-11-24T09:27:00.655Z,89.10
2022-11-24T09:29:49.321Z,89.10
2022-11-24T09:32:39.072Z,89.10
2022-11-24T09:35:27.650Z,89.10
2022-11-24T09:38:16.528Z,89.10
2022-11-24T09:41:26.214Z,89.10
2022-11-24T09:44:38.846Z,89.20
2022-11-24T09:47:36.384Z,89.10
2022-11-24T09:50:30.134Z,89.10
2022-11-24T09:53:24.968Z,89.00
2022-11-24T09:56:20.988Z,89.10
2022-11-24T09:59:17.049Z,89.10
2022-11-24T10:02:12.483Z,89.10
2022-11-24T10:05:01.239Z,89.10
2022-11-24T10:08:01.475Z,89.20
2022-11-24T10:10:57.727Z,89.20
2022-11-24T10:14:10.223Z,89.10
2022-11-24T10:17:10.094Z,89.10
2022-11-24T10:20:06.303Z,89.10
2022-11-24T10:23:08.367Z,89.10
2022-11-24T10:25:59.540Z,89.20
2022-11-24T10:28:53.502Z,89.10
2022-11-24T10:31:44.174Z,89.20
2022-11-24T10:34:36.558Z,89.20
2022-11-24T10:37:31.576Z,89.20
2022-11-24T10:40:55.959Z,89.20
2022-11-24T10:43:44.170Z,89.20
2022-11-24T10:46:37.853Z,89.10
2022-11-24T10:49:31.479Z,89.20
2022-11-24T10:52:20.479Z,89.10
2022-11-24T10:55:09.391Z,89.20
2022-11-24T10:58:17.493Z,89.10
2022-11-24T11:01:22.462Z,89.10
2022-11-24T11:04:21.158Z,89.00
2022-11-24T11:07:20.565Z,89.10
2022-11-24T11:10:25.813Z,89.00
2022-11-24T11:13:26.698Z,89.10
2022-11-24T11:16:25.405Z,89.00
2022-11-24T11:19:52.358Z,89.00
2022-11-24T11:22:46.542Z,89.30
2022-11-24T11:25:38.224Z,89.10
2022-11-24T11:28:31.411Z,89.10
2022-11-24T11:31:22.915Z,89.10
2022-11-24T11:34:26.722Z,89.10
2022-11-24T11:37:19.995Z,89.70
2022-11-24T11:40:17.040Z,89.20
2022-11-24T11:43:14.375Z,89.20
2022-11-24T11:46:11.150Z,89.10
2022-11-24T11:48:59.838Z,89.10
2022-11-24T11:52:02.526Z,89.20
2022-11-24T11:55:14.821Z,89.00
2022-11-24T11:58:29.642Z,89.10
2022-11-24T12:01:37.102Z,89.00
2022-11-24T12:04:39.198Z,88.90
2022-11-24T12:07:49.630Z,88.90
2022-11-24T12:10:42.660Z,88.90
2022-11-24T12:13:53.130Z,88.80
2022-11-24T12:16:53.961Z,88.70
2022-11-24T12:19:56.963Z,88.80
2022-11-24T12:22:50.803Z,88.80
2022-11-24T12:25:42.638Z,88.80
2022-11-24T12:28:47.405Z,88.70
2022-11-24T12:31:48.751Z,88.70
2022-11-24T12:34:47.488Z,88.70
2022-11-24T12:37:47.378Z,88.60
2022-11-24T12:40:47.803Z,88.50
2022-11-24T12:43:37.970Z,88.50
2022-11-24T12:46:36.025Z,88.50
2022-11-24T12:49:35.447Z,88.50
2022-11-24T12:52:27.191Z,88.50
2022-11-24T12:55:20.369Z,88.50
2022-11-24T12:58:13.789Z,88.50
2022-11-24T13:01:16.538Z,88.40
2022-11-24T13:04:20.226Z,88.40
2022-11-24T13:07:15.138Z,88.30
2022-11-24T13:10:54.850Z,88.30
2022-11-24T13:13:59.821Z,88.40
2022-11-24T13:20:23.546Z,88.40
2022-11-24T13:23:25.689Z,88.40
2022-11-24T13:26:30.235Z,88.40
2022-11-24T13:29:36.330Z,88.40
2022-11-24T13:32:48.523Z,88.40
2022-11-24T13:35:37.495Z,88.40
2022-11-24T13:41:51.654Z,88.40
2022-11-24T13:44:49.206Z,88.50
2022-11-24T13:47:43.236Z,88.50
2022-11-24T13:51:08.545Z,88.50
2022-11-24T13:54:01.012Z,88.50
2022-11-24T13:56:49.821Z,88.50
2022-11-24T13:59:38.598Z,88.50
2022-11-24T14:02:30.372Z,88.50
2022-11-24T14:05:21.907Z,88.50
2022-11-24T14:08:20.750Z,88.50
2022-11-24T14:11:15.906Z,88.50
2022-11-24T14:14:17.600Z,88.50
2022-11-24T14:17:16.246Z,88.50
2022-11-24T14:20:23.231Z,88.50
2022-11-24T14:23:12.252Z,88.50
2022-11-24T14:26:00.711Z,88.50
2022-11-24T14:28:49.440Z,88.40
2022-11-24T14:31:39.818Z,88.40
2022-11-24T14:34:29.933Z,88.50
2022-11-24T14:37:20.328Z,88.40
2022-11-24T14:40:40.485Z,88.50
2022-11-24T14:43:32.090Z,88.60
2022-11-24T14:46:21.511Z,88.70
2022-11-24T14:49:18.221Z,88.60
2022-11-24T14:52:13.948Z,88.60
2022-11-24T14:55:22.516Z,88.50
2022-11-24T14:58:23.032Z,88.60
2022-11-24T15:01:23.303Z,88.60
2022-11-24T15:04:26.989Z,89.10
2022-11-24T15:07:25.833Z,88.50
2022-11-24T15:10:29.097Z,88.50
2022-11-24T15:13:23.827Z,88.50
2022-11-24T15:16:19.360Z,88.60
2022-11-24T15:19:16.879Z,88.60
2022-11-24T15:22:33.843Z,88.60
2022-11-24T15:25:34.860Z,88.60
2022-11-24T15:28:26.164Z,88.60
2022-11-24T15:31:15.182Z,88.70
2022-11-24T15:34:03.707Z,88.70
2022-11-24T15:36:52.065Z,88.50
2022-11-24T15:39:41.008Z,88.60
2022-11-24T15:42:30.501Z,88.60
2022-11-24T15:45:19.441Z,88.60
2022-11-24T15:48:07.876Z,88.60
2022-11-24T15:50:58.994Z,88.70
2022-11-24T15:53:49.486Z,88.80
2022-11-24T15:56:39.069Z,88.70
2022-11-24T15:59:28.693Z,88.70
2022-11-24T16:02:17.093Z,88.70
2022-11-24T16:05:05.654Z,88.70
2022-11-24T16:07:54.418Z,88.60
2022-11-24T16:10:44.168Z,88.50
2022-11-24T16:13:32.503Z,88.60
2022-11-24T16:16:23.591Z,88.70
2022-11-24T16:19:12.492Z,88.60
2022-11-24T16:22:01.075Z,88.70
2022-11-24T16:24:49.077Z,88.80
2022-11-24T16:27:37.622Z,88.70
2022-11-24T16:30:26.166Z,88.60
2022-11-24T16:33:15.882Z,88.70
2022-11-24T16:36:03.710Z,88.70
2022-11-24T16:38:52.368Z,88.70
2022-11-24T16:41:40.945Z,88.60
2022-11-24T16:44:29.396Z,88.70
2022-11-24T16:47:17.630Z,88.70
2022-11-24T16:50:09.251Z,88.70
2022-11-24T16:52:58.223Z,88.80
2022-11-24T16:55:57.202Z,88.80
2022-11-24T16:58:45.217Z,88.70
2022-11-24T17:01:34.837Z,88.70
2022-11-24T17:04:23.547Z,88.80
2022-11-24T17:07:13.941Z,88.70
2022-11-24T17:10:02.923Z,88.70
2022-11-24T17:12:51.002Z,88.70
2022-11-24T17:15:45.316Z,88.80
2022-11-24T17:18:36.662Z,88.70
2022-11-24T17:21:26.710Z,88.80
2022-11-24T17:24:18.153Z,88.80
2022-11-24T17:27:06.251Z,88.80
2022-11-24T17:29:54.774Z,88.80
2022-11-24T17:32:43.312Z,88.80
2022-11-24T17:35:31.664Z,88.80
2022-11-24T17:38:20.101Z,88.80
2022-11-24T17:41:09.897Z,88.80
2022-11-24T17:43:58.534Z,88.80
2022-11-24T17:46:47.491Z,88.90
2022-11-24T17:49:35.897Z,88.90
2022-11-24T17:52:24.669Z,88.80
2022-11-24T17:55:13.757Z,88.80
2022-11-24T17:58:03.726Z,88.80
2022-11-24T18:00:53.924Z,88.80
2022-11-24T18:03:42.894Z,88.80
2022-11-24T18:06:31.118Z,88.80
2022-11-24T18:09:19.372Z,88.80
2022-11-24T18:12:12.929Z,88.70
2022-11-24T18:15:02.831Z,88.80
2022-11-24T18:17:53.200Z,88.80
2022-11-24T18:20:43.183Z,88.80
2022-11-24T18:23:33.649Z,88.90
2022-11-24T18:26:22.969Z,88.90
2022-11-24T18:29:12.572Z,88.90
2022-11-24T18:32:02.757Z,88.90
2022-11-24T18:34:51.295Z,88.90
2022-11-24T18:37:44.135Z,88.90
2022-11-24T18:40:32.437Z,88.90
2022-11-24T18:43:20.960Z,88.90
2022-11-24T18:46:12.287Z,88.90
2022-11-24T18:49:01.602Z,88.80
2022-11-24T18:51:49.889Z,88.80
2022-11-24T18:54:38.033Z,88.80
2022-11-24T18:57:26.507Z,88.80
2022-11-24T19:00:16.134Z,88.80
2022-11-24T19:03:03.899Z,88.70
2022-11-24T19:05:53.459Z,88.80
2022-11-24T19:08:43.398Z,88.80
2022-11-24T19:11:33.987Z,88.80
2022-11-24T19:14:22.807Z,88.80
2022-11-24T19:17:11.515Z,88.70
2022-11-24T19:19:59.717Z,88.70
2022-11-24T19:22:49.710Z,88.70
2022-11-24T19:25:37.621Z,88.70
2022-11-24T19:28:26.492Z,88.80
2022-11-24T19:31:20.667Z,88.70
2022-11-24T19:34:10.048Z,88.70
2022-11-24T19:36:58.104Z,88.70
2022-11-24T19:39:50.454Z,88.80
2022-11-24T19:42:38.840Z,88.70
2022-11-24T19:45:46.337Z,88.80
2022-11-24T19:48:36.716Z,88.80
2022-11-24T19:51:33.247Z,88.70
2022-11-24T19:54:21.772Z,88.70
2022-11-24T19:57:11.550Z,88.60
2022-11-24T20:00:00.764Z,88.60
2022-11-24T20:02:50.273Z,88.70
2022-11-24T20:05:38.666Z,88.60
2022-11-24T20:08:30.394Z,88.60
2022-11-24T20:11:21.135Z,88.60
2022-11-24T20:14:13.219Z,88.60
2022-11-24T20:17:02.197Z,88.70
2022-11-24T20:19:50.915Z,88.70
2022-11-24T20:22:39.693Z,88.60
2022-11-24T20:25:28.249Z,88.50
2022-11-24T20:28:17.145Z,88.60
2022-11-24T20:31:09.784Z,88.50
2022-11-24T20:33:58.145Z,88.50
2022-11-24T20:36:48.390Z,88.50
2022-11-24T20:39:36.775Z,88.60
2022-11-24T20:42:25.300Z,88.60
2022-11-24T20:45:13.752Z,88.50
2022-11-24T20:48:03.541Z,88.50
2022-11-24T20:50:52.977Z,88.60
2022-11-24T20:53:42.012Z,88.60
2022-11-24T20:56:31.954Z,88.60
2022-11-24T20:59:22.602Z,88.60
2022-11-24T21:02:12.338Z,88.60
2022-11-24T21:05:02.583Z,88.60
2022-11-24T21:07:50.608Z,88.60
2022-11-24T21:10:39.299Z,88.60
2022-11-24T21:13:28.763Z,88.60
2022-11-24T21:16:19.604Z,88.60
2022-11-24T21:19:11.643Z,88.60
2022-11-24T21:22:01.602Z,88.70
2022-11-24T21:24:50.068Z,88.70
2022-11-24T21:27:38.761Z,88.60
2022-11-24T21:30:27.947Z,88.70
2022-11-24T21:33:17.016Z,88.60
2022-11-24T21:36:06.493Z,88.60
2022-11-24T21:38:57.458Z,88.50
2022-11-24T21:41:46.086Z,88.50
2022-11-24T21:44:35.314Z,88.50
2022-11-24T21:47:23.716Z,88.50
2022-11-24T21:50:12.829Z,88.50
2022-11-24T21:53:03.587Z,88.50
2022-11-24T21:56:00.830Z,88.50
2022-11-24T21:58:50.756Z,88.50
2022-11-24T22:01:39.490Z,88.50
2022-11-24T22:04:27.790Z,88.40
2022-11-24T22:07:16.569Z,88.40
2022-11-24T22:10:05.736Z,88.40
2022-11-24T22:12:55.941Z,88.50
2022-11-24T22:15:44.102Z,88.40
2022-11-24T22:18:34.197Z,88.40
2022-11-24T22:21:29.449Z,88.40
2022-11-24T22:24:21.663Z,88.40
2022-11-24T22:27:12.598Z,88.40
2022-11-24T22:30:02.724Z,88.40
2022-11-24T22:32:51.077Z,88.40
2022-11-24T22:35:39.169Z,88.40
2022-11-24T22:38:29.346Z,88.30
2022-11-24T22:41:19.040Z,88.30
2022-11-24T22:44:09.360Z,88.40
2022-11-24T22:47:00.005Z,88.40
2022-11-24T22:49:48.918Z,88.40
2022-11-24T22:52:37.556Z,88.40
2022-11-24T22:55:25.835Z,88.30
2022-11-24T22:58:14.084Z,88.30
2022-11-24T23:01:06.426Z,88.30
2022-11-24T23:03:56.453Z,88.30
2022-11-24T23:06:44.630Z,88.30
2022-11-24T23:09:33.922Z,88.30
2022-11-24T23:12:22.309Z,88.30
2022-11-24T23:15:11.611Z,88.30
2022-11-24T23:18:00.554Z,88.30
2022-11-24T23:20:50.032Z,88.20
2022-11-24T23:23:38.658Z,88.30
2022-11-24T23:26:28.693Z,88.30
2022-11-24T23:29:17.092Z,88.40
2022-11-24T23:32:05.698Z,88.30
2022-11-24T23:34:54.134Z,88.30
2022-11-24T23:38:06.632Z,88.20
2022-11-24T23:40:56.106Z,88.80
2022-11-24T23:43:44.885Z,88.30
2022-11-24T23:46:33.589Z,88.40
2022-11-24T23:49:22.178Z,88.30
2022-11-24T23:52:10.475Z,88.30
2022-11-24T23:55:00.391Z,88.30
2022-11-24T23:57:49.141Z,88.30
